Time;durP1;ratioP1;P1;durP2;ratioP2;P2;SDS_P1;SDS_P2;PMS_P1;PMS_P2;Temp;Humidity;BMP_temperature;BMP_pressure;BME280_temperature;BME280_humidity;BME280_pressure;Samples;Min_cycle;Max_cycle;Signal;HPM_P1;HPM_P2
2024/01/12 00:00:30;;;;;;;15.20;7.10;;;2.40;99.90;;;;;;5013711;28;20466;-65
2024/01/12 00:02:57;;;;;;;14.67;7.60;;;2.30;99.90;;;;;;5013791;28;20440;-64
2024/01/12 00:05:26;;;;;;;15.67;8.60;;;2.30;99.90;;;;;;5013823;28;20505;-65
2024/01/12 00:07:54;;;;;;;18.10;9.23;;;2.30;99.90;;;;;;5013420;28;20454;-66
2024/01/12 00:10:23;;;;;;;17.03;7.77;;;2.30;99.90;;;;;;5020549;28;20447;-65
2024/01/12 00:12:50;;;;;;;11.60;8.03;;;2.20;99.90;;;;;;5026811;28;20490;-66
2024/01/12 00:15:17;;;;;;;18.50;7.60;;;2.30;99.90;;;;;;5026439;28;20505;-65
2024/01/12 00:17:44;;;;;;;18.53;8.87;;;2.20;99.90;;;;;;5024146;28;20827;-65
2024/01/12 00:20:12;;;;;;;13.80;5.97;;;2.20;99.90;;;;;;5023997;28;20710;-67
2024/01/12 00:22:39;;;;;;;12.67;7.83;;;2.10;99.90;;;;;;5034078;28;20426;-67
2024/01/12 00:25:06;;;;;;;11.60;6.90;;;2.20;99.90;;;;;;5034850;28;20439;-65
2024/01/12 00:27:37;;;;;;;21.57;9.27;;;2.10;99.90;;;;;;5034899;28;20477;-64
2024/01/12 00:30:06;;;;;;;19.53;9.17;;;2.10;99.90;;;;;;5033600;28;20457;-65
2024/01/12 00:32:37;;;;;;;18.23;9.13;;;2.10;99.90;;;;;;5033780;28;20483;-65
2024/01/12 00:35:04;;;;;;;15.07;8.20;;;2.10;99.90;;;;;;5034382;28;20486;-65
2024/01/12 00:37:30;;;;;;;13.83;6.77;;;2.10;99.90;;;;;;5035430;28;20479;-65
2024/01/12 00:39:59;;;;;;;21.53;7.70;;;2.00;99.90;;;;;;5036453;28;20476;-65
2024/01/12 00:42:26;;;;;;;16.03;8.37;;;2.10;99.90;;;;;;5036656;28;20441;-66
2024/01/12 00:44:54;;;;;;;14.93;9.53;;;2.10;99.90;;;;;;5035781;28;20461;-65
2024/01/12 00:47:21;;;;;;;16.93;7.27;;;2.10;99.90;;;;;;5034925;28;20464;-64
2024/01/12 00:49:48;;;;;;;18.20;8.33;;;2.30;99.90;;;;;;5034077;28;20451;-66
2024/01/12 00:52:15;;;;;;;20.83;8.03;;;2.20;99.90;;;;;;5033537;28;20482;-64
2024/01/12 00:54:42;;;;;;;13.63;6.80;;;2.30;99.90;;;;;;5036632;28;21254;-63
2024/01/12 00:57:10;;;;;;;16.33;6.77;;;2.30;99.90;;;;;;5038288;28;20461;-64
2024/01/12 00:59:37;;;;;;;16.70;8.27;;;2.40;99.90;;;;;;5038717;28;20477;-65
2024/01/12 01:02:06;;;;;;;16.33;7.30;;;2.30;99.90;;;;;;5037226;28;20509;-65
2024/01/12 01:04:33;;;;;;;19.80;8.13;;;2.30;99.90;;;;;;5037324;28;20472;-66
2024/01/12 01:06:59;;;;;;;22.00;8.53;;;2.30;99.90;;;;;;5037105;28;20482;-66
2024/01/12 01:09:27;;;;;;;14.20;7.47;;;2.40;99.90;;;;;;5036289;28;20478;-66
2024/01/12 01:11:55;;;;;;;14.97;7.20;;;1.80;99.90;;;;;;5036976;28;20505;-64
2024/01/12 01:14:24;;;;;;;13.20;6.60;;;2.40;99.90;;;;;;5037059;28;20468;-65
2024/01/12 01:16:51;;;;;;;18.73;8.23;;;2.60;99.90;;;;;;5036738;28;20509;-65
2024/01/12 01:19:19;;;;;;;19.00;8.30;;;2.50;99.90;;;;;;5037330;28;20455;-66
2024/01/12 01:21:46;;;;;;;12.80;6.30;;;2.50;99.90;;;;;;5036871;28;20482;-65
2024/01/12 01:24:13;;;;;;;17.40;7.43;;;2.50;99.90;;;;;;5036911;28;20479;-65
2024/01/12 01:26:40;;;;;;;15.60;7.63;;;2.50;99.90;;;;;;5037717;28;20486;-65
2024/01/12 01:29:07;;;;;;;12.70;6.80;;;2.60;99.90;;;;;;5037629;28;20450;-66
2024/01/12 01:31:36;;;;;;;16.70;8.27;;;2.50;99.90;;;;;;5036950;28;20452;-66
2024/01/12 01:34:03;;;;;;;13.63;6.77;;;4.60;99.90;;;;;;5036772;28;20512;-65
2024/01/12 01:36:33;;;;;;;17.60;7.43;;;2.50;99.90;;;;;;5036586;28;20471;-65
2024/01/12 01:39:00;;;;;;;15.50;7.13;;;2.50;99.90;;;;;;5035801;28;20458;-65
2024/01/12 01:41:27;;;;;;;13.40;6.37;;;2.60;99.90;;;;;;5035028;28;20457;-66
2024/01/12 01:43:56;;;;;;;12.10;6.50;;;2.40;99.90;;;;;;5035193;28;20450;-66
2024/01/12 01:46:25;;;;;;;12.40;6.90;;;2.40;99.90;;;;;;5035485;28;20435;-65
2024/01/12 01:48:53;;;;;;;12.37;6.63;;;;;;;;;;5034870;28;20456;-65
2024/01/12 01:51:20;;;;;;;15.20;7.10;;;;;;;;;;5035158;28;20484;-65
2024/01/12 01:53:48;;;;;;;14.80;7.57;;;2.40;99.90;;;;;;5035883;28;20468;-65
2024/01/12 01:56:16;;;;;;;17.17;8.33;;;2.30;99.90;;;;;;5035690;28;20446;-65
2024/01/12 01:58:43;;;;;;;14.70;8.33;;;2.40;99.90;;;;;;5036279;28;20469;-65
2024/01/12 02:01:11;;;;;;;13.27;6.97;;;2.50;99.90;;;;;;5036756;28;20488;-64
2024/01/12 02:03:40;;;;;;;13.70;7.07;;;2.50;99.90;;;;;;5036252;28;20452;-65
2024/01/12 02:06:07;;;;;;;13.77;7.00;;;2.40;99.90;;;;;;5035157;28;20470;-65
2024/01/12 02:08:34;;;;;;;14.73;8.13;;;2.50;99.90;;;;;;5035922;28;20474;-65
2024/01/12 02:11:03;;;;;;;11.10;7.50;;;2.50;99.90;;;;;;5035566;28;20449;-66
2024/01/12 02:13:30;;;;;;;8.93;5.30;;;2.40;99.90;;;;;;5037485;28;20494;-65
2024/01/12 02:15:57;;;;;;;11.83;7.27;;;2.40;99.90;;;;;;5037123;28;20460;-64
2024/01/12 02:18:24;;;;;;;12.80;6.57;;;2.40;99.90;;;;;;5036142;28;20466;-65
2024/01/12 02:21:00;;;;;;;16.07;6.80;;;2.30;99.90;;;;;;5035756;28;20525;-64
2024/01/12 02:23:30;;;;;;;13.00;7.77;;;2.90;99.90;;;;;;5035264;28;20431;-65
2024/01/12 02:25:57;;;;;;;12.40;6.77;;;2.30;99.90;;;;;;5035329;28;20489;-66
2024/01/12 02:28:24;;;;;;;15.83;6.23;;;2.40;99.90;;;;;;5035275;28;20454;-65
2024/01/12 02:30:51;;;;;;;13.23;7.87;;;2.40;99.90;;;;;;5035577;28;20532;-66
2024/01/12 02:33:18;;;;;;;15.07;6.40;;;2.40;99.90;;;;;;5035206;28;20482;-66
2024/01/12 02:35:47;;;;;;;14.73;7.30;;;2.50;99.90;;;;;;5035479;28;20702;-65
2024/01/12 02:38:17;;;;;;;10.67;6.50;;;2.40;99.90;;;;;;5035749;28;20451;-66
2024/01/12 02:40:46;;;;;;;16.97;7.70;;;2.50;99.90;;;;;;5035811;28;20523;-65
2024/01/12 02:43:13;;;;;;;13.90;6.97;;;2.40;99.90;;;;;;5036595;28;20438;-64
2024/01/12 02:45:39;;;;;;;22.50;7.50;;;2.40;99.90;;;;;;5036945;28;20441;-64
2024/01/12 02:48:09;;;;;;;13.20;6.87;;;2.40;99.90;;;;;;5037608;28;20472;-65
2024/01/12 02:50:36;;;;;;;10.90;6.07;;;2.30;99.90;;;;;;5037354;28;20443;-61
2024/01/12 02:53:03;;;;;;;10.67;6.37;;;2.30;99.90;;;;;;5037452;28;20481;-65
2024/01/12 02:55:34;;;;;;;9.30;5.80;;;2.40;99.90;;;;;;5037604;28;20471;-64
2024/01/12 02:58:01;;;;;;;11.80;6.00;;;2.30;99.90;;;;;;5037736;28;20462;-64
2024/01/12 03:00:30;;;;;;;15.70;8.10;;;2.30;99.90;;;;;;5037255;28;20528;-63
2024/01/12 03:02:57;;;;;;;12.27;5.00;;;2.20;99.90;;;;;;5035643;28;20472;-65
2024/01/12 03:05:26;;;;;;;11.30;6.03;;;2.20;99.90;;;;;;5035798;28;20446;-64
2024/01/12 03:07:53;;;;;;;12.23;8.17;;;2.20;99.90;;;;;;5035325;28;20462;-64
2024/01/12 03:10:20;;;;;;;10.87;5.70;;;2.30;99.90;;;;;;5035323;28;20448;-65
2024/01/12 03:12:48;;;;;;;14.23;5.77;;;2.30;99.90;;;;;;5035285;28;20450;-64
2024/01/12 03:15:15;;;;;;;11.70;6.30;;;2.30;99.90;;;;;;5035906;28;20454;-64
2024/01/12 03:17:46;;;;;;;9.77;5.43;;;2.30;99.90;;;;;;5033603;28;20462;-64
2024/01/12 03:20:12;;;;;;;15.50;8.30;;;2.30;99.90;;;;;;5025978;28;20435;-65
2024/01/12 03:22:39;;;;;;;24.73;6.80;;;2.30;99.90;;;;;;5033165;28;20473;-65
2024/01/12 03:25:08;;;;;;;9.50;6.27;;;2.20;99.90;;;;;;5035664;28;20445;-63
2024/01/12 03:27:35;;;;;;;14.97;6.40;;;2.20;99.90;;;;;;5034084;28;20457;-64
2024/01/12 03:30:04;;;;;;;14.73;7.20;;;2.20;99.90;;;;;;5028528;28;20439;-65
2024/01/12 03:32:30;;;;;;;13.50;5.70;;;2.20;99.90;;;;;;5035553;28;20438;-63
2024/01/12 03:34:57;;;;;;;12.27;6.27;;;2.20;99.90;;;;;;5035155;28;20510;-64
2024/01/12 03:37:26;;;;;;;17.97;6.07;;;2.20;99.90;;;;;;5035771;28;20454;-64
2024/01/12 03:39:53;;;;;;;16.37;7.30;;;2.10;99.90;;;;;;5035426;28;20444;-65
2024/01/12 03:42:20;;;;;;;14.60;6.20;;;2.10;99.90;;;;;;5035390;28;20493;-64
2024/01/12 03:44:47;;;;;;;15.47;7.80;;;2.10;99.90;;;;;;5035193;28;20433;-65
2024/01/12 03:47:15;;;;;;;11.67;6.30;;;2.10;99.90;;;;;;5035834;28;20460;-64
2024/01/12 03:49:43;;;;;;;17.83;6.97;;;2.10;99.90;;;;;;5035959;28;20430;-63
2024/01/12 03:52:10;;;;;;;13.43;7.53;;;3.00;99.90;;;;;;5035410;28;20481;-64
2024/01/12 03:54:37;;;;;;;14.77;6.90;;;2.10;99.90;;;;;;5033903;28;20497;-64
2024/01/12 03:57:04;;;;;;;10.53;5.80;;;2.10;99.90;;;;;;5033878;28;20525;-66
2024/01/12 03:59:30;;;;;;;17.03;7.60;;;2.20;99.90;;;;;;5034612;28;20469;-64
2024/01/12 04:02:00;;;;;;;15.10;6.90;;;2.20;99.90;;;;;;5034233;28;20427;-65
2024/01/12 04:04:29;;;;;;;10.27;5.57;;;2.30;99.90;;;;;;5034547;28;20485;-64
2024/01/12 04:06:56;;;;;;;9.10;5.27;;;2.10;99.90;;;;;;5034741;28;20489;-64
2024/01/12 04:09:23;;;;;;;15.17;6.40;;;2.30;99.90;;;;;;5035235;28;20488;-62
2024/01/12 04:11:50;;;;;;;14.83;6.20;;;2.10;99.90;;;;;;5034818;28;20557;-63
2024/01/12 04:14:17;;;;;;;12.37;7.10;;;1.90;99.90;;;;;;5035157;28;20486;-64
2024/01/12 04:16:44;;;;;;;10.83;6.00;;;2.00;99.90;;;;;;5035266;28;20909;-64
2024/01/12 04:19:16;;;;;;;7.50;4.30;;;2.10;99.90;;;;;;5035416;28;20496;-65
2024/01/12 04:21:44;;;;;;;13.97;6.10;;;2.10;99.90;;;;;;5035639;28;20472;-64
2024/01/12 04:24:11;;;;;;;15.37;5.57;;;2.10;99.90;;;;;;5034311;28;20451;-64
2024/01/12 04:26:38;;;;;;;11.17;5.90;;;;;;;;;;5034455;28;20466;-65
2024/01/12 04:29:05;;;;;;;18.67;7.37;;;2.10;99.90;;;;;;5038736;28;20454;-65
2024/01/12 04:31:32;;;;;;;12.73;7.83;;;2.10;99.90;;;;;;5041284;28;20458;-64
2024/01/12 04:34:01;;;;;;;13.63;6.60;;;2.20;99.90;;;;;;5041356;28;20477;-65
2024/01/12 04:36:28;;;;;;;17.43;8.90;;;2.20;99.90;;;;;;5040775;28;20463;-63
2024/01/12 04:38:57;;;;;;;13.67;6.87;;;2.10;99.90;;;;;;5041487;28;20445;-64
2024/01/12 04:41:24;;;;;;;14.70;7.30;;;2.00;99.90;;;;;;5041251;28;20460;-65
2024/01/12 04:43:51;;;;;;;19.10;5.97;;;1.90;99.90;;;;;;5041523;28;20440;-64
2024/01/12 04:46:17;;;;;;;15.50;7.10;;;1.90;99.90;;;;;;5041819;28;20454;-63
2024/01/12 04:48:44;;;;;;;13.00;6.87;;;1.80;99.90;;;;;;5042149;28;20450;-68
2024/01/12 04:51:12;;;;;;;14.80;6.77;;;1.90;99.90;;;;;;5042648;28;20452;-64
2024/01/12 04:53:39;;;;;;;14.63;7.83;;;1.90;99.90;;;;;;5041591;28;20481;-64
2024/01/12 04:56:07;;;;;;;12.60;7.60;;;2.00;99.90;;;;;;5041445;28;20491;-64
2024/01/12 04:58:34;;;;;;;26.87;7.70;;;2.00;99.90;;;;;;5041396;28;20812;-64
2024/01/12 05:01:03;;;;;;;10.40;5.83;;;2.00;99.90;;;;;;5041428;28;20465;-64
2024/01/12 05:03:30;;;;;;;14.60;7.37;;;2.10;99.90;;;;;;5041276;28;20469;-64
2024/01/12 05:05:59;;;;;;;13.33;7.70;;;2.10;99.90;;;;;;5041818;28;20456;-64
2024/01/12 05:08:27;;;;;;;10.37;6.40;;;2.10;99.90;;;;;;5041918;28;20430;-65
2024/01/12 05:10:55;;;;;;;11.03;7.37;;;2.10;99.90;;;;;;5043140;28;20442;-65
2024/01/12 05:13:23;;;;;;;15.30;8.30;;;2.40;99.90;;;;;;5043053;28;20518;-64
2024/01/12 05:15:50;;;;;;;14.20;7.40;;;2.00;99.90;;;;;;5042276;28;20456;-65
2024/01/12 05:18:17;;;;;;;27.33;9.10;;;2.20;99.90;;;;;;5040628;28;20466;-65
2024/01/12 05:20:44;;;;;;;14.97;7.93;;;2.20;99.90;;;;;;5040967;28;20449;-64
2024/01/12 05:23:11;;;;;;;19.10;7.37;;;2.20;99.90;;;;;;5040775;28;20446;-64
2024/01/12 05:25:39;;;;;;;14.60;7.00;;;2.30;99.90;;;;;;5041970;28;20453;-64
2024/01/12 05:28:06;;;;;;;13.80;7.80;;;2.30;99.90;;;;;;5041676;28;20519;-63
2024/01/12 05:30:35;;;;;;;14.93;7.17;;;2.30;99.90;;;;;;5040455;28;20507;-65
2024/01/12 05:33:01;;;;;;;10.33;6.77;;;2.20;99.90;;;;;;5040465;28;20442;-65
2024/01/12 05:35:31;;;;;;;11.60;6.33;;;2.30;99.90;;;;;;5040500;28;20486;-65
2024/01/12 05:37:59;;;;;;;15.13;7.10;;;2.30;99.90;;;;;;5039458;28;20427;-65
2024/01/12 05:40:26;;;;;;;13.93;6.90;;;2.30;99.90;;;;;;5036842;28;20443;-63
2024/01/12 05:42:53;;;;;;;13.20;6.83;;;2.30;99.90;;;;;;5036314;28;20467;-64
2024/01/12 05:45:20;;;;;;;9.30;5.77;;;2.30;99.90;;;;;;5038115;28;20455;-64
2024/01/12 05:47:48;;;;;;;20.37;6.70;;;2.30;99.90;;;;;;5037631;28;20470;-65
2024/01/12 05:50:15;;;;;;;12.47;5.80;;;2.20;99.90;;;;;;5037949;28;20450;-64
2024/01/12 05:52:41;;;;;;;11.40;5.80;;;2.20;99.90;;;;;;5037338;28;20502;-65
2024/01/12 05:55:08;;;;;;;9.27;6.17;;;2.10;99.90;;;;;;5037066;28;20482;-65
2024/01/12 05:57:35;;;;;;;8.73;4.90;;;2.20;99.90;;;;;;5037644;28;20427;-64
2024/01/12 06:00:04;;;;;;;14.00;6.53;;;2.10;99.90;;;;;;5038009;28;20496;-64
2024/01/12 06:02:31;;;;;;;11.30;5.63;;;2.10;99.90;;;;;;5037263;28;20446;-64
2024/01/12 06:04:59;;;;;;;11.40;6.47;;;2.10;99.90;;;;;;5037333;28;20428;-64
2024/01/12 06:07:26;;;;;;;15.20;7.80;;;2.00;99.90;;;;;;5034514;28;20446;-64
2024/01/12 06:09:54;;;;;;;15.23;6.70;;;2.00;99.90;;;;;;5037628;28;20484;-64
2024/01/12 06:12:21;;;;;;;10.37;4.97;;;2.00;99.90;;;;;;5037027;28;20513;-64
2024/01/12 06:14:48;;;;;;;12.43;6.53;;;2.00;99.90;;;;;;5036903;28;20491;-65
2024/01/12 06:17:15;;;;;;;12.30;7.40;;;2.10;99.90;;;;;;5036938;28;20444;-64
2024/01/12 06:19:42;;;;;;;15.00;6.57;;;2.10;99.90;;;;;;5037195;28;20494;-63
2024/01/12 06:22:10;;;;;;;13.53;7.20;;;2.00;99.90;;;;;;5037012;28;20446;-64
2024/01/12 06:24:37;;;;;;;15.17;7.87;;;1.90;99.90;;;;;;5037189;28;20508;-64
2024/01/12 06:27:05;;;;;;;14.43;5.83;;;1.90;99.90;;;;;;5037079;28;20474;-64
2024/01/12 06:29:34;;;;;;;16.80;8.50;;;1.90;99.90;;;;;;5036306;28;20491;-65
2024/01/12 06:32:02;;;;;;;16.60;8.37;;;1.80;99.90;;;;;;5035543;28;20458;-66
2024/01/12 06:34:31;;;;;;;17.30;8.03;;;1.80;99.90;;;;;;5034675;28;20486;-64
2024/01/12 06:36:58;;;;;;;18.17;8.37;;;1.60;99.90;;;;;;5034851;28;20475;-63
2024/01/12 06:39:29;;;;;;;16.70;6.93;;;1.70;99.90;;;;;;5035368;28;20453;-65
2024/01/12 06:41:56;;;;;;;16.67;7.90;;;1.60;99.90;;;;;;5035123;28;20522;-64
2024/01/12 06:44:22;;;;;;;14.93;6.90;;;1.60;99.90;;;;;;5035305;28;20475;-65
2024/01/12 06:46:49;;;;;;;16.93;6.60;;;1.60;99.90;;;;;;5035693;28;20438;-64
2024/01/12 06:49:19;;;;;;;14.30;7.00;;;1.60;99.90;;;;;;5034753;28;20258;-64
2024/01/12 06:51:46;;;;;;;13.37;7.23;;;1.50;99.90;;;;;;5036041;28;20448;-64
2024/01/12 06:54:15;;;;;;;22.20;9.60;;;1.50;99.90;;;;;;5036441;28;20908;-64
2024/01/12 06:56:44;;;;;;;16.57;7.30;;;1.40;99.90;;;;;;5016196;28;20449;-65
2024/01/12 06:59:10;;;;;;;13.70;8.27;;;1.40;99.90;;;;;;5016151;28;20471;-64
2024/01/12 07:01:37;;;;;;;14.43;8.07;;;1.30;99.90;;;;;;5031845;28;20465;-65
2024/01/12 07:04:04;;;;;;;16.40;9.53;;;1.30;99.90;;;;;;5036089;28;20437;-65
2024/01/12 07:06:33;;;;;;;15.30;8.10;;;1.30;99.90;;;;;;5035278;28;20454;-65
2024/01/12 07:09:00;;;;;;;19.07;9.97;;;1.30;99.90;;;;;;5035872;28;20465;-65
2024/01/12 07:11:39;;;;;;;23.50;10.23;;;1.30;99.90;;;;;;5036325;28;20466;-65
2024/01/12 07:14:07;;;;;;;15.33;7.67;;;1.30;99.90;;;;;;5035853;28;20493;-65
2024/01/12 07:16:36;;;;;;;14.70;7.57;;;1.40;99.90;;;;;;5034981;28;20472;-65
2024/01/12 07:19:03;;;;;;;11.83;6.87;;;1.50;99.90;;;;;;5035920;28;20457;-65
2024/01/12 07:21:29;;;;;;;15.93;7.20;;;1.50;99.90;;;;;;5036719;28;20466;-64
2024/01/12 07:23:56;;;;;;;14.50;7.43;;;1.50;99.90;;;;;;5037264;28;20481;-65
2024/01/12 07:26:32;;;;;;;14.40;8.17;;;1.40;99.90;;;;;;5038005;28;20449;-63
2024/01/12 07:28:59;;;;;;;14.50;6.97;;;1.40;99.90;;;;;;5037575;28;20441;-64
2024/01/12 07:31:27;;;;;;;13.90;7.27;;;1.30;99.90;;;;;;5035211;28;20531;-65
2024/01/12 07:33:54;;;;;;;15.77;7.17;;;1.30;99.90;;;;;;5035522;28;20846;-65
2024/01/12 07:36:21;;;;;;;13.10;7.60;;;-0.70;99.90;;;;;;5035539;28;20455;-64
2024/01/12 07:38:48;;;;;;;16.10;7.10;;;1.30;99.90;;;;;;5035869;28;20480;-63
2024/01/12 07:41:15;;;;;;;10.83;5.67;;;1.40;99.90;;;;;;5035668;28;20456;-63
2024/01/12 07:43:43;;;;;;;24.07;6.03;;;1.40;99.90;;;;;;5035328;28;20443;-63
2024/01/12 07:46:15;;;;;;;10.27;4.60;;;1.40;99.90;;;;;;5035705;28;20443;-64
2024/01/12 07:48:44;;;;;;;8.57;4.73;;;1.40;99.90;;;;;;5035608;28;20782;-64
2024/01/12 07:51:10;;;;;;;13.57;5.97;;;1.20;99.90;;;;;;5035341;28;20459;-65
2024/01/12 07:53:37;;;;;;;10.17;5.00;;;1.20;99.90;;;;;;5034967;28;20441;-64
2024/01/12 07:56:05;;;;;;;16.53;7.03;;;1.20;99.90;;;;;;5035870;28;20477;-63
2024/01/12 07:58:35;;;;;;;9.03;4.70;;;1.00;99.90;;;;;;5036014;28;20464;-64
2024/01/12 08:01:05;;;;;;;11.87;5.50;;;1.00;99.90;;;;;;5023754;28;20468;-64
2024/01/12 08:03:32;;;;;;;12.10;5.60;;;1.10;99.90;;;;;;5023087;28;20445;-63
2024/01/12 08:06:00;;;;;;;9.17;3.80;;;1.00;99.90;;;;;;5026189;28;20442;-64
2024/01/12 08:08:27;;;;;;;8.60;4.67;;;1.00;99.90;;;;;;5032378;28;20478;-64
2024/01/12 08:10:54;;;;;;;13.93;6.27;;;1.00;99.90;;;;;;5031497;28;20450;-65
2024/01/12 08:13:21;;;;;;;9.30;4.47;;;1.00;99.90;;;;;;5032407;28;20474;-65
2024/01/12 08:15:50;;;;;;;8.43;4.40;;;1.10;99.90;;;;;;5034048;28;20488;-67
2024/01/12 08:18:18;;;;;;;7.87;3.80;;;1.10;99.90;;;;;;5029159;28;20444;-65
2024/01/12 08:20:45;;;;;;;11.67;4.73;;;1.10;99.90;;;;;;5024970;28;20483;-65
2024/01/12 08:23:15;;;;;;;9.13;4.90;;;1.10;99.90;;;;;;5034014;28;20468;-65
2024/01/12 08:25:42;;;;;;;11.53;4.83;;;1.00;99.90;;;;;;5032125;28;20443;-65
2024/01/12 08:28:10;;;;;;;11.70;4.33;;;1.00;99.90;;;;;;5025189;28;20432;-65
2024/01/12 08:30:37;;;;;;;11.03;5.53;;;1.10;99.90;;;;;;5025014;28;20441;-64
2024/01/12 08:33:06;;;;;;;14.23;5.20;;;1.10;99.90;;;;;;5029347;28;20459;-65
2024/01/12 08:35:34;;;;;;;9.50;4.53;;;1.10;99.90;;;;;;5026096;28;20472;-64
2024/01/12 08:38:04;;;;;;;13.40;4.00;;;1.10;99.90;;;;;;5024166;28;20446;-65
2024/01/12 08:40:33;;;;;;;10.97;3.83;;;1.90;99.90;;;;;;5026304;28;20466;-64
2024/01/12 08:43:01;;;;;;;11.00;4.70;;;1.10;99.90;;;;;;5028863;28;20477;-65
2024/01/12 08:45:28;;;;;;;4.47;2.60;;;1.10;99.90;;;;;;5032574;28;20468;-64
2024/01/12 08:47:57;;;;;;;16.83;5.90;;;1.10;99.90;;;;;;5032379;28;20492;-65
2024/01/12 08:50:24;;;;;;;11.17;3.93;;;1.10;99.90;;;;;;5032930;28;20461;-65
2024/01/12 08:52:51;;;;;;;7.27;3.40;;;1.20;99.90;;;;;;5033039;28;20460;-64
2024/01/12 08:55:18;;;;;;;5.63;2.97;;;1.20;99.90;;;;;;5030507;28;20480;-64
2024/01/12 08:57:47;;;;;;;9.27;4.93;;;1.30;99.90;;;;;;5031375;28;20475;-64
2024/01/12 09:00:16;;;;;;;8.37;3.70;;;1.40;99.90;;;;;;5024456;28;20453;-65
2024/01/12 09:10:07;;;;;;;6.93;4.00;;;2.30;99.90;;;;;;4858829;29;20429;-65
2024/01/12 09:16:52;;;;;;;;;;;;;;;;;;;;;
2024/01/12 09:46:56;;;;;;;3.70;2.73;;;1.70;99.90;;;;;;4844227;29;20470;-66
2024/01/12 09:49:25;;;;;;;7.80;2.90;;;1.00;99.90;;;;;;4854652;29;20514;-65
2024/01/12 09:52:03;;;;;;;9.80;3.30;;;1.20;99.90;;;;;;4966560;29;20465;-63
2024/01/12 09:54:34;;;;;;;6.60;2.80;;;1.30;99.90;;;;;;4969092;29;20503;-64
2024/01/12 09:57:08;;;;;;;6.43;4.27;;;1.40;99.90;;;;;;4974204;29;20480;-65
2024/01/12 09:59:38;;;;;;;5.53;4.17;;;1.50;99.90;;;;;;4969873;29;20427;-65
2024/01/12 10:02:14;;;;;;;8.63;3.53;;;1.40;99.90;;;;;;4968041;29;20443;-64
2024/01/12 10:04:41;;;;;;;7.10;3.10;;;1.30;99.90;;;;;;4961130;29;20469;-65
2024/01/12 10:07:08;;;;;;;8.70;2.67;;;0.90;99.90;;;;;;4993035;28;20447;-67
2024/01/12 10:09:38;;;;;;;4.70;3.40;;;1.40;99.90;;;;;;5020585;28;20504;-64
2024/01/12 10:12:06;;;;;;;6.80;3.40;;;1.50;99.90;;;;;;5018729;28;20442;-65
2024/01/12 10:14:33;;;;;;;6.80;2.53;;;1.40;99.90;;;;;;5027378;28;20436;-63
2024/01/12 10:17:02;;;;;;;10.37;3.80;;;1.40;99.90;;;;;;5036097;28;20484;-65
2024/01/12 10:19:31;;;;;;;4.23;2.77;;;1.30;99.90;;;;;;5035315;28;20473;-64
2024/01/12 10:21:57;;;;;;;3.10;2.80;;;1.30;99.90;;;;;;5037601;28;20454;-63
2024/01/12 10:24:24;;;;;;;3.33;3.03;;;1.30;99.90;;;;;;5037600;28;20423;-62
2024/01/12 10:26:52;;;;;;;1.83;1.13;;;1.30;99.90;;;;;;5036843;28;20474;-63
2024/01/12 10:29:20;;;;;;;2.53;1.80;;;1.20;99.90;;;;;;5037343;28;20473;-65
2024/01/12 10:31:48;;;;;;;3.60;2.60;;;0.40;99.90;;;;;;5036561;28;20469;-65
2024/01/12 10:34:15;;;;;;;12.47;4.23;;;1.10;99.90;;;;;;5036390;28;20902;-64
2024/01/12 10:36:50;;;;;;;6.63;3.43;;;1.10;99.90;;;;;;5035961;28;20492;-64
2024/01/12 10:39:19;;;;;;;6.37;3.23;;;1.00;99.90;;;;;;5039177;28;20489;-64
2024/01/12 10:41:47;;;;;;;6.40;3.40;;;1.00;99.90;;;;;;5056642;28;20437;-63
2024/01/12 10:44:22;;;;;;;5.13;4.63;;;1.00;99.90;;;;;;5055789;28;20475;-64
2024/01/12 10:46:53;;;;;;;6.93;6.20;;;1.00;99.90;;;;;;5056129;28;20456;-63
2024/01/12 10:49:21;;;;;;;7.07;3.87;;;1.00;99.90;;;;;;5056270;28;20451;-63
2024/01/12 10:52:02;;;;;;;5.10;2.63;;;1.00;99.90;;;;;;5056695;28;20490;-63
2024/01/12 10:54:34;;;;;;;8.43;3.80;;;1.10;99.90;;;;;;5056284;28;20455;-63
2024/01/12 10:57:03;;;;;;;6.10;3.00;;;1.10;99.90;;;;;;5057545;28;20459;-60
2024/01/12 10:59:30;;;;;;;10.83;4.10;;;1.20;99.90;;;;;;5056622;28;20468;-65
2024/01/12 11:01:58;;;;;;;5.73;3.50;;;1.30;99.90;;;;;;5056574;28;20576;-63
2024/01/12 11:04:26;;;;;;;10.87;4.97;;;1.30;99.90;;;;;;5056089;28;20452;-64
2024/01/12 11:06:57;;;;;;;6.63;3.80;;;1.30;99.90;;;;;;5055926;28;20435;-62
2024/01/12 11:09:26;;;;;;;5.37;3.47;;;1.20;99.90;;;;;;5055675;28;20435;-64
2024/01/12 11:12:00;;;;;;;6.97;4.00;;;1.20;99.90;;;;;;5056291;28;20480;-64
2024/01/12 11:14:28;;;;;;;15.77;6.20;;;1.20;99.90;;;;;;5056049;28;20447;-63
2024/01/12 11:16:57;;;;;;;9.10;4.50;;;1.10;99.90;;;;;;5053384;28;20499;-63
2024/01/12 11:19:25;;;;;;;10.27;5.00;;;0.80;99.90;;;;;;5036375;28;20461;-63
2024/01/12 11:22:04;;;;;;;10.63;4.93;;;1.20;99.90;;;;;;5036023;28;20440;-62
2024/01/12 11:24:31;;;;;;;7.17;4.30;;;1.10;99.90;;;;;;5035625;28;20425;-64
2024/01/12 11:26:59;;;;;;;12.73;4.73;;;1.10;99.90;;;;;;5036456;28;20461;-61
2024/01/12 11:29:36;;;;;;;12.23;6.63;;;1.10;99.90;;;;;;5036338;28;20454;-60
2024/01/12 11:32:07;;;;;;;5.83;4.13;;;1.00;99.90;;;;;;5036436;28;20901;-61
2024/01/12 11:34:35;;;;;;;10.50;4.60;;;1.00;99.90;;;;;;5035580;28;20463;-62
2024/01/12 11:37:11;;;;;;;5.27;3.20;;;1.00;99.90;;;;;;5035292;28;20517;-62
2024/01/12 11:39:41;;;;;;;6.50;4.00;;;1.00;99.90;;;;;;5035909;28;20528;-63
2024/01/12 11:42:08;;;;;;;8.93;3.50;;;0.90;99.90;;;;;;5037525;28;20430;-62
2024/01/12 11:44:38;;;;;;;8.97;5.17;;;1.00;99.90;;;;;;5037196;28;20521;-64
2024/01/12 11:47:09;;;;;;;13.40;5.97;;;1.00;99.90;;;;;;5037292;28;20426;-64
2024/01/12 11:49:41;;;;;;;6.73;4.67;;;0.90;99.90;;;;;;5036321;28;20453;-66
2024/01/12 11:52:09;;;;;;;9.63;4.90;;;1.00;99.90;;;;;;5035863;28;20433;-65
2024/01/12 11:54:38;;;;;;;8.80;5.00;;;0.90;99.90;;;;;;5036210;28;20445;-63
2024/01/12 11:57:05;;;;;;;4.97;3.43;;;0.90;99.90;;;;;;5035252;28;20492;-62
2024/01/12 11:59:32;;;;;;;10.17;4.40;;;0.80;99.90;;;;;;5035758;28;20458;-65
2024/01/12 12:02:00;;;;;;;10.37;5.17;;;0.80;99.90;;;;;;5035528;28;20462;-63
2024/01/12 12:04:27;;;;;;;6.63;4.43;;;0.70;99.90;;;;;;5035792;28;20476;-65
2024/01/12 12:06:54;;;;;;;8.93;4.60;;;0.90;99.90;;;;;;5036351;28;20447;-66
2024/01/12 12:09:26;;;;;;;11.67;5.53;;;1.00;99.90;;;;;;5035743;28;20442;-64
2024/01/12 12:11:53;;;;;;;9.43;5.03;;;1.00;99.90;;;;;;5035342;28;20430;-63
2024/01/12 12:14:20;;;;;;;11.40;6.13;;;1.00;99.90;;;;;;5035077;28;20452;-64
2024/01/12 12:16:46;;;;;;;11.73;6.10;;;1.00;99.90;;;;;;5035431;28;20472;-64
2024/01/12 12:19:13;;;;;;;13.57;5.33;;;1.00;99.90;;;;;;5035194;28;20524;-63
2024/01/12 12:21:41;;;;;;;9.37;5.00;;;1.00;99.90;;;;;;5035105;28;20773;-65
2024/01/12 12:24:09;;;;;;;12.90;4.47;;;1.00;99.90;;;;;;5035011;28;20458;-65
2024/01/12 12:26:41;;;;;;;11.00;4.20;;;0.90;99.90;;;;;;5035343;28;20441;-64
2024/01/12 12:29:09;;;;;;;8.17;3.60;;;0.90;99.90;;;;;;5036113;28;20501;-64
2024/01/12 12:31:41;;;;;;;4.93;3.30;;;0.90;99.90;;;;;;5037222;28;20440;-64
2024/01/12 12:34:09;;;;;;;9.30;5.50;;;0.80;99.90;;;;;;5037452;28;20542;-62
2024/01/12 12:36:36;;;;;;;21.03;6.73;;;0.80;99.90;;;;;;5035762;28;20495;-64
2024/01/12 12:39:06;;;;;;;6.50;3.40;;;0.90;99.90;;;;;;5036149;28;20447;-63
2024/01/12 12:41:34;;;;;;;10.50;5.30;;;0.60;99.90;;;;;;5035545;28;20458;-63
2024/01/12 12:44:03;;;;;;;19.57;4.23;;;0.90;99.90;;;;;;5036306;28;20487;-63
2024/01/12 12:46:33;;;;;;;11.60;5.93;;;0.90;99.90;;;;;;5036114;28;20549;-64
2024/01/12 12:49:01;;;;;;;12.17;6.20;;;0.90;99.90;;;;;;5036855;28;20455;-62
2024/01/12 12:51:28;;;;;;;13.70;7.03;;;0.80;99.90;;;;;;5039738;28;20460;-64
2024/01/12 12:53:55;;;;;;;12.63;4.70;;;1.00;99.90;;;;;;5039733;28;20458;-63
2024/01/12 12:56:22;;;;;;;11.00;4.77;;;0.90;99.90;;;;;;5038757;28;20463;-65
2024/01/12 12:58:51;;;;;;;11.33;5.07;;;0.90;99.90;;;;;;5038492;28;20527;-65
2024/01/12 13:01:23;;;;;;;11.00;3.97;;;0.90;99.90;;;;;;5038558;28;20467;-64
2024/01/12 13:03:50;;;;;;;12.30;5.50;;;0.90;99.90;;;;;;5038040;28;20464;-65
2024/01/12 13:06:22;;;;;;;10.93;6.07;;;0.80;99.90;;;;;;5041895;28;20426;-63
2024/01/12 13:08:57;;;;;;;14.93;5.73;;;0.90;99.90;;;;;;5041574;28;20414;-64
2024/01/12 13:11:24;;;;;;;11.60;5.40;;;0.80;99.90;;;;;;5041590;28;20500;-62
2024/01/12 13:13:51;;;;;;;14.17;6.10;;;0.60;99.90;;;;;;5041802;28;20417;-66
2024/01/12 13:16:19;;;;;;;16.53;6.00;;;0.60;99.90;;;;;;5041483;28;20476;-61
2024/01/12 13:18:48;;;;;;;9.13;4.47;;;0.70;99.90;;;;;;5041345;28;20440;-64
2024/01/12 13:21:34;;;;;;;14.90;6.13;;;0.70;99.90;;;;;;5041535;28;20437;-65
2024/01/12 13:24:49;;;;;;;14.50;7.17;;;0.70;99.90;;;;;;5041482;28;20459;-66
2024/01/12 13:55:54;;;;;;;5.43;3.57;;;0.30;99.90;;;;;;4612397;22;20491;-70
2024/01/12 13:58:22;;;;;;;11.60;6.17;;;0.30;99.90;;;;;;5000741;28;20468;-70
2024/01/12 14:00:50;;;;;;;12.40;4.67;;;0.30;99.90;;;;;;4999666;28;20516;-71
2024/01/12 14:03:20;;;;;;;13.93;4.00;;;0.40;99.90;;;;;;5001575;28;20503;-71